Wattsburg, Pennsylvania
Current Conditions -  °F | °C
As of 8:51 AM on Thursday 29 Jan 2015 (Local Time) from KERI Reporting Station
Overcast Overcast  
Wind Chill: 18°   Ceiling: 6500
Heat Index: 30°   Visibility: 10mi
Dew Point:   Wind: 18mph
Humidity: 36%   Direction: 140°SE
Pressure: 29.9"   Gusts: 26mph
Location:  42°N, 79.81°W
Report Text: KERI 291351Z 14016G23KT 10SM OVC065 M01/M14 A2990 RMK AO2 PRESFR SLP136 T10111144
Loading
Personal Weather Stations






























Interactive Weather Map New forecast layout! Learn more

10-Day Weather Forecast

Advertisements
Track Severe Weather on mobile